sensor_id;sensor_type;location;lat;lon;timestamp;temperature;humidity
33903;DHT22;20194;50.950;5.346;2023-11-18T00:01:05;9.20;92.90
33903;DHT22;20194;50.950;5.346;2023-11-18T00:03:32;9.20;92.60
33903;DHT22;20194;50.950;5.346;2023-11-18T00:05:58;9.20;92.30
33903;DHT22;20194;50.950;5.346;2023-11-18T00:08:23;8.70;93.60
33903;DHT22;20194;50.950;5.346;2023-11-18T00:10:50;8.50;94.70
33903;DHT22;20194;50.950;5.346;2023-11-18T00:13:15;8.30;96.90
33903;DHT22;20194;50.950;5.346;2023-11-18T00:15:42;8.30;97.10
33903;DHT22;20194;50.950;5.346;2023-11-18T00:18:08;8.50;96.60
33903;DHT22;20194;50.950;5.346;2023-11-18T00:20:34;8.60;95.60
33903;DHT22;20194;50.950;5.346;2023-11-18T00:23:01;8.50;95.80
33903;DHT22;20194;50.950;5.346;2023-11-18T00:25:30;8.60;95.70
33903;DHT22;20194;50.950;5.346;2023-11-18T00:27:57;8.70;95.20
33903;DHT22;20194;50.950;5.346;2023-11-18T00:30:22;8.80;94.60
33903;DHT22;20194;50.950;5.346;2023-11-18T00:32:48;8.90;94.20
33903;DHT22;20194;50.950;5.346;2023-11-18T00:35:14;8.90;93.90
33903;DHT22;20194;50.950;5.346;2023-11-18T00:37:40;8.70;93.80
33903;DHT22;20194;50.950;5.346;2023-11-18T00:40:07;8.60;94.70
33903;DHT22;20194;50.950;5.346;2023-11-18T00:42:34;8.70;94.80
33903;DHT22;20194;50.950;5.346;2023-11-18T00:44:59;8.80;94.40
33903;DHT22;20194;50.950;5.346;2023-11-18T00:47:25;8.80;94.10
33903;DHT22;20194;50.950;5.346;2023-11-18T00:49:51;8.80;93.60
33903;DHT22;20194;50.950;5.346;2023-11-18T00:52:18;8.80;93.50
33903;DHT22;20194;50.950;5.346;2023-11-18T00:54:44;8.80;93.70
33903;DHT22;20194;50.950;5.346;2023-11-18T00:57:10;8.90;93.30
33903;DHT22;20194;50.950;5.346;2023-11-18T00:59:36;8.90;93.10
33903;DHT22;20194;50.950;5.346;2023-11-18T01:02:01;8.90;92.60
33903;DHT22;20194;50.950;5.346;2023-11-18T01:04:30;8.90;92.60
33903;DHT22;20194;50.950;5.346;2023-11-18T01:06:58;8.90;92.20
33903;DHT22;20194;50.950;5.346;2023-11-18T01:09:24;8.90;92.50
33903;DHT22;20194;50.950;5.346;2023-11-18T01:11:50;8.90;92.20
33903;DHT22;20194;50.950;5.346;2023-11-18T01:14:16;9.00;92.40
33903;DHT22;20194;50.950;5.346;2023-11-18T01:16:43;8.90;92.10
33903;DHT22;20194;50.950;5.346;2023-11-18T01:19:09;9.00;92.30
33903;DHT22;20194;50.950;5.346;2023-11-18T01:21:36;9.00;92.10
33903;DHT22;20194;50.950;5.346;2023-11-18T01:24:02;8.90;92.30
33903;DHT22;20194;50.950;5.346;2023-11-18T01:26:28;8.90;92.50
33903;DHT22;20194;50.950;5.346;2023-11-18T01:28:53;8.80;92.90
33903;DHT22;20194;50.950;5.346;2023-11-18T01:31:21;8.80;93.10
33903;DHT22;20194;50.950;5.346;2023-11-18T01:33:47;8.80;92.90
33903;DHT22;20194;50.950;5.346;2023-11-18T01:36:15;8.70;93.20
33903;DHT22;20194;50.950;5.346;2023-11-18T01:38:43;8.80;93.50
33903;DHT22;20194;50.950;5.346;2023-11-18T01:41:09;8.80;93.60
33903;DHT22;20194;50.950;5.346;2023-11-18T01:43:35;8.90;93.20
33903;DHT22;20194;50.950;5.346;2023-11-18T01:46:03;8.80;93.40
33903;DHT22;20194;50.950;5.346;2023-11-18T01:48:31;8.90;93.50
33903;DHT22;20194;50.950;5.346;2023-11-18T01:50:59;8.80;93.30
33903;DHT22;20194;50.950;5.346;2023-11-18T01:53:25;8.60;93.90
33903;DHT22;20194;50.950;5.346;2023-11-18T01:55:51;8.60;94.30
33903;DHT22;20194;50.950;5.346;2023-11-18T01:58:17;8.50;94.70
33903;DHT22;20194;50.950;5.346;2023-11-18T02:00:45;8.60;94.50
33903;DHT22;20194;50.950;5.346;2023-11-18T02:03:14;8.60;94.50
33903;DHT22;20194;50.950;5.346;2023-11-18T02:05:40;8.60;94.30
33903;DHT22;20194;50.950;5.346;2023-11-18T02:08:07;8.70;94.10
33903;DHT22;20194;50.950;5.346;2023-11-18T02:10:46;8.70;93.90
33903;DHT22;20194;50.950;5.346;2023-11-18T02:13:31;8.80;93.90
33903;DHT22;20194;50.950;5.346;2023-11-18T02:15:59;8.80;93.50
33903;DHT22;20194;50.950;5.346;2023-11-18T02:18:28;8.90;93.20
33903;DHT22;20194;50.950;5.346;2023-11-18T02:20:58;8.90;93.00
33903;DHT22;20194;50.950;5.346;2023-11-18T02:23:28;9.00;92.80
33903;DHT22;20194;50.950;5.346;2023-11-18T02:25:54;8.90;92.20
33903;DHT22;20194;50.950;5.346;2023-11-18T02:28:21;8.90;92.20
33903;DHT22;20194;50.950;5.346;2023-11-18T02:30:47;8.90;92.60
33903;DHT22;20194;50.950;5.346;2023-11-18T02:33:18;8.80;92.40
33903;DHT22;20194;50.950;5.346;2023-11-18T02:36:09;8.90;92.60
33903;DHT22;20194;50.950;5.346;2023-11-18T02:38:39;8.90;92.30
33903;DHT22;20194;50.950;5.346;2023-11-18T02:41:09;9.00;92.30
33903;DHT22;20194;50.950;5.346;2023-11-18T02:43:37;9.00;92.00
33903;DHT22;20194;50.950;5.346;2023-11-18T02:46:08;8.80;92.40
33903;DHT22;20194;50.950;5.346;2023-11-18T02:48:34;8.70;92.70
33903;DHT22;20194;50.950;5.346;2023-11-18T02:51:03;8.80;93.20
33903;DHT22;20194;50.950;5.346;2023-11-18T02:53:29;8.60;92.90
33903;DHT22;20194;50.950;5.346;2023-11-18T02:55:55;8.50;93.30
33903;DHT22;20194;50.950;5.346;2023-11-18T02:58:31;8.50;93.80
33903;DHT22;20194;50.950;5.346;2023-11-18T03:00:58;8.60;93.50
33903;DHT22;20194;50.950;5.346;2023-11-18T03:03:25;8.60;93.10
33903;DHT22;20194;50.950;5.346;2023-11-18T03:05:51;8.70;93.00
33903;DHT22;20194;50.950;5.346;2023-11-18T03:08:16;8.70;92.80
33903;DHT22;20194;50.950;5.346;2023-11-18T03:10:42;8.60;92.70
33903;DHT22;20194;50.950;5.346;2023-11-18T03:13:10;8.60;92.60
33903;DHT22;20194;50.950;5.346;2023-11-18T03:15:35;8.50;93.10
33903;DHT22;20194;50.950;5.346;2023-11-18T03:18:01;8.50;93.10
33903;DHT22;20194;50.950;5.346;2023-11-18T03:20:27;8.30;93.40
33903;DHT22;20194;50.950;5.346;2023-11-18T03:22:54;8.20;94.30
33903;DHT22;20194;50.950;5.346;2023-11-18T03:25:21;8.20;94.80
33903;DHT22;20194;50.950;5.346;2023-11-18T03:27:49;8.20;95.00
33903;DHT22;20194;50.950;5.346;2023-11-18T03:30:15;8.30;95.00
33903;DHT22;20194;50.950;5.346;2023-11-18T03:32:42;8.40;94.60
33903;DHT22;20194;50.950;5.346;2023-11-18T03:35:08;8.30;94.30
33903;DHT22;20194;50.950;5.346;2023-11-18T03:37:35;8.30;94.50
33903;DHT22;20194;50.950;5.346;2023-11-18T03:40:07;8.30;94.60
33903;DHT22;20194;50.950;5.346;2023-11-18T03:42:33;8.20;94.50
33903;DHT22;20194;50.950;5.346;2023-11-18T03:45:00;8.30;95.20
33903;DHT22;20194;50.950;5.346;2023-11-18T03:47:26;8.30;94.70
33903;DHT22;20194;50.950;5.346;2023-11-18T03:49:52;8.30;94.90
33903;DHT22;20194;50.950;5.346;2023-11-18T03:52:20;8.40;94.90
33903;DHT22;20194;50.950;5.346;2023-11-18T03:54:45;8.40;94.70
33903;DHT22;20194;50.950;5.346;2023-11-18T03:57:11;8.50;94.40
33903;DHT22;20194;50.950;5.346;2023-11-18T03:59:39;8.60;94.40
33903;DHT22;20194;50.950;5.346;2023-11-18T04:02:05;8.50;94.20
33903;DHT22;20194;50.950;5.346;2023-11-18T04:04:31;8.40;94.30
33903;DHT22;20194;50.950;5.346;2023-11-18T04:06:57;8.30;95.20
33903;DHT22;20194;50.950;5.346;2023-11-18T04:09:23;8.50;94.90
33903;DHT22;20194;50.950;5.346;2023-11-18T04:11:48;8.40;94.50
33903;DHT22;20194;50.950;5.346;2023-11-18T04:14:15;8.40;94.40
33903;DHT22;20194;50.950;5.346;2023-11-18T04:16:40;8.40;95.10
33903;DHT22;20194;50.950;5.346;2023-11-18T04:19:06;8.40;94.60
33903;DHT22;20194;50.950;5.346;2023-11-18T04:21:32;8.30;95.20
33903;DHT22;20194;50.950;5.346;2023-11-18T04:23:57;8.20;95.20
33903;DHT22;20194;50.950;5.346;2023-11-18T04:26:23;8.10;96.30
33903;DHT22;20194;50.950;5.346;2023-11-18T04:28:50;8.10;96.20
33903;DHT22;20194;50.950;5.346;2023-11-18T04:31:15;8.00;96.40
33903;DHT22;20194;50.950;5.346;2023-11-18T04:33:41;8.10;96.70
33903;DHT22;20194;50.950;5.346;2023-11-18T04:36:09;8.20;96.50
33903;DHT22;20194;50.950;5.346;2023-11-18T04:38:35;8.20;96.50
33903;DHT22;20194;50.950;5.346;2023-11-18T04:41:02;8.20;96.10
33903;DHT22;20194;50.950;5.346;2023-11-18T04:43:30;8.20;96.20
33903;DHT22;20194;50.950;5.346;2023-11-18T04:45:56;8.20;96.10
33903;DHT22;20194;50.950;5.346;2023-11-18T04:48:22;8.20;96.20
33903;DHT22;20194;50.950;5.346;2023-11-18T04:50:48;8.00;96.80
33903;DHT22;20194;50.950;5.346;2023-11-18T04:53:13;8.00;97.20
33903;DHT22;20194;50.950;5.346;2023-11-18T04:55:40;7.90;97.40
33903;DHT22;20194;50.950;5.346;2023-11-18T04:58:05;7.80;98.10
33903;DHT22;20194;50.950;5.346;2023-11-18T05:00:38;8.00;98.20
33903;DHT22;20194;50.950;5.346;2023-11-18T05:03:07;7.80;98.10
33903;DHT22;20194;50.950;5.346;2023-11-18T05:05:39;7.50;98.60
33903;DHT22;20194;50.950;5.346;2023-11-18T05:08:05;7.70;99.60
33903;DHT22;20194;50.950;5.346;2023-11-18T05:10:34;7.60;99.10
33903;DHT22;20194;50.950;5.346;2023-11-18T05:13:02;7.60;99.40
33903;DHT22;20194;50.950;5.346;2023-11-18T05:15:27;7.80;99.30
33903;DHT22;20194;50.950;5.346;2023-11-18T05:17:55;7.80;98.70
33903;DHT22;20194;50.950;5.346;2023-11-18T05:20:21;7.80;98.60
33903;DHT22;20194;50.950;5.346;2023-11-18T05:22:48;7.60;98.80
33903;DHT22;20194;50.950;5.346;2023-11-18T05:25:14;7.50;99.40
33903;DHT22;20194;50.950;5.346;2023-11-18T05:27:39;7.40;99.90
33903;DHT22;20194;50.950;5.346;2023-11-18T05:30:10;7.40;99.90
33903;DHT22;20194;50.950;5.346;2023-11-18T05:32:36;7.50;99.90
33903;DHT22;20194;50.950;5.346;2023-11-18T05:35:03;7.60;99.90
33903;DHT22;20194;50.950;5.346;2023-11-18T05:37:31;7.60;99.60
33903;DHT22;20194;50.950;5.346;2023-11-18T05:40:02;7.70;99.80
33903;DHT22;20194;50.950;5.346;2023-11-18T05:42:36;7.60;99.20
33903;DHT22;20194;50.950;5.346;2023-11-18T05:45:05;7.80;99.40
33903;DHT22;20194;50.950;5.346;2023-11-18T05:47:36;7.80;99.10
33903;DHT22;20194;50.950;5.346;2023-11-18T05:50:02;7.80;98.70
33903;DHT22;20194;50.950;5.346;2023-11-18T05:52:30;7.80;98.90
33903;DHT22;20194;50.950;5.346;2023-11-18T05:54:56;7.90;99.00
33903;DHT22;20194;50.950;5.346;2023-11-18T05:57:22;7.90;98.50
33903;DHT22;20194;50.950;5.346;2023-11-18T05:59:47;7.90;98.30
33903;DHT22;20194;50.950;5.346;2023-11-18T06:02:14;7.80;98.60
33903;DHT22;20194;50.950;5.346;2023-11-18T06:04:44;7.90;98.70
33903;DHT22;20194;50.950;5.346;2023-11-18T06:07:10;7.80;99.00
33903;DHT22;20194;50.950;5.346;2023-11-18T06:09:39;7.90;98.90
33903;DHT22;20194;50.950;5.346;2023-11-18T06:12:08;8.00;98.70
33903;DHT22;20194;50.950;5.346;2023-11-18T06:14:38;8.10;98.10
33903;DHT22;20194;50.950;5.346;2023-11-18T06:17:04;8.00;98.10
33903;DHT22;20194;50.950;5.346;2023-11-18T06:19:32;8.00;98.10
33903;DHT22;20194;50.950;5.346;2023-11-18T06:21:58;8.00;98.00
33903;DHT22;20194;50.950;5.346;2023-11-18T06:24:24;8.20;97.90
33903;DHT22;20194;50.950;5.346;2023-11-18T06:26:49;8.20;97.50
33903;DHT22;20194;50.950;5.346;2023-11-18T06:29:15;8.10;97.30
33903;DHT22;20194;50.950;5.346;2023-11-18T06:31:41;8.00;97.90
33903;DHT22;20194;50.950;5.346;2023-11-18T06:34:08;7.90;98.30
33903;DHT22;20194;50.950;5.346;2023-11-18T06:36:34;7.90;98.10
33903;DHT22;20194;50.950;5.346;2023-11-18T06:39:00;8.00;98.50
33903;DHT22;20194;50.950;5.346;2023-11-18T06:41:26;7.90;97.80
33903;DHT22;20194;50.950;5.346;2023-11-18T06:44:00;7.80;98.80
33903;DHT22;20194;50.950;5.346;2023-11-18T06:46:35;7.80;98.90
33903;DHT22;20194;50.950;5.346;2023-11-18T06:49:03;7.80;99.00
33903;DHT22;20194;50.950;5.346;2023-11-18T06:51:30;7.90;99.20
33903;DHT22;20194;50.950;5.346;2023-11-18T06:53:57;8.00;98.80
33903;DHT22;20194;50.950;5.346;2023-11-18T06:56:25;7.90;98.80
33903;DHT22;20194;50.950;5.346;2023-11-18T06:58:50;7.90;99.10
33903;DHT22;20194;50.950;5.346;2023-11-18T07:01:17;7.90;98.80
33903;DHT22;20194;50.950;5.346;2023-11-18T07:03:43;7.80;98.80
33903;DHT22;20194;50.950;5.346;2023-11-18T07:06:10;7.90;99.30
33903;DHT22;20194;50.950;5.346;2023-11-18T07:08:38;7.80;98.90
33903;DHT22;20194;50.950;5.346;2023-11-18T07:11:05;7.90;99.30
33903;DHT22;20194;50.950;5.346;2023-11-18T07:13:31;8.00;99.20
33903;DHT22;20194;50.950;5.346;2023-11-18T07:16:00;8.00;99.10
33903;DHT22;20194;50.950;5.346;2023-11-18T07:18:28;8.00;99.00
33903;DHT22;20194;50.950;5.346;2023-11-18T07:20:56;8.00;99.10
33903;DHT22;20194;50.950;5.346;2023-11-18T07:23:23;8.10;98.80
33903;DHT22;20194;50.950;5.346;2023-11-18T07:25:49;8.10;98.50
33903;DHT22;20194;50.950;5.346;2023-11-18T07:28:14;8.20;98.60
33903;DHT22;20194;50.950;5.346;2023-11-18T07:30:41;8.20;98.70
33903;DHT22;20194;50.950;5.346;2023-11-18T07:33:08;8.30;98.40
33903;DHT22;20194;50.950;5.346;2023-11-18T07:35:35;8.20;98.10
33903;DHT22;20194;50.950;5.346;2023-11-18T07:38:02;8.20;98.70
33903;DHT22;20194;50.950;5.346;2023-11-18T07:40:28;8.20;99.00
33903;DHT22;20194;50.950;5.346;2023-11-18T07:42:54;8.30;98.70
33903;DHT22;20194;50.950;5.346;2023-11-18T07:45:21;8.30;99.10
33903;DHT22;20194;50.950;5.346;2023-11-18T07:47:50;8.30;99.00
33903;DHT22;20194;50.950;5.346;2023-11-18T07:50:20;8.20;99.10
33903;DHT22;20194;50.950;5.346;2023-11-18T07:52:47;8.20;99.40
33903;DHT22;20194;50.950;5.346;2023-11-18T07:55:14;8.20;99.70
33903;DHT22;20194;50.950;5.346;2023-11-18T07:57:40;8.20;99.90
33903;DHT22;20194;50.950;5.346;2023-11-18T08:00:07;8.10;99.90
33903;DHT22;20194;50.950;5.346;2023-11-18T08:02:36;8.20;99.90
33903;DHT22;20194;50.950;5.346;2023-11-18T08:05:03;8.20;99.90
33903;DHT22;20194;50.950;5.346;2023-11-18T08:07:33;8.20;99.90
33903;DHT22;20194;50.950;5.346;2023-11-18T08:09:59;8.20;99.90
33903;DHT22;20194;50.950;5.346;2023-11-18T08:12:25;8.20;99.90
33903;DHT22;20194;50.950;5.346;2023-11-18T08:14:51;8.30;99.90
33903;DHT22;20194;50.950;5.346;2023-11-18T08:17:18;8.30;99.90
33903;DHT22;20194;50.950;5.346;2023-11-18T08:19:45;8.30;99.90
33903;DHT22;20194;50.950;5.346;2023-11-18T08:22:11;8.30;99.90
33903;DHT22;20194;50.950;5.346;2023-11-18T08:24:39;8.30;99.90
33903;DHT22;20194;50.950;5.346;2023-11-18T08:27:04;8.30;99.90
33903;DHT22;20194;50.950;5.346;2023-11-18T08:29:32;8.40;99.90
33903;DHT22;20194;50.950;5.346;2023-11-18T08:31:58;8.30;99.90
33903;DHT22;20194;50.950;5.346;2023-11-18T08:34:24;8.20;99.90
33903;DHT22;20194;50.950;5.346;2023-11-18T08:36:51;8.20;99.90
33903;DHT22;20194;50.950;5.346;2023-11-18T08:39:17;8.20;99.90
33903;DHT22;20194;50.950;5.346;2023-11-18T08:41:48;8.20;99.90
33903;DHT22;20194;50.950;5.346;2023-11-18T08:44:16;8.20;99.90
33903;DHT22;20194;50.950;5.346;2023-11-18T08:46:43;8.30;99.90
33903;DHT22;20194;50.950;5.346;2023-11-18T08:49:09;8.30;99.90
33903;DHT22;20194;50.950;5.346;2023-11-18T08:51:42;8.40;99.90
33903;DHT22;20194;50.950;5.346;2023-11-18T08:54:08;8.30;99.90
33903;DHT22;20194;50.950;5.346;2023-11-18T08:56:54;8.40;99.90
33903;DHT22;20194;50.950;5.346;2023-11-18T08:59:20;8.40;99.90
33903;DHT22;20194;50.950;5.346;2023-11-18T09:01:53;8.30;99.90
33903;DHT22;20194;50.950;5.346;2023-11-18T09:04:25;8.40;99.90
33903;DHT22;20194;50.950;5.346;2023-11-18T09:06:51;8.40;99.90
33903;DHT22;20194;50.950;5.346;2023-11-18T09:09:25;8.30;99.90
33903;DHT22;20194;50.950;5.346;2023-11-18T09:11:54;8.40;99.90
33903;DHT22;20194;50.950;5.346;2023-11-18T09:14:22;8.40;99.90
33903;DHT22;20194;50.950;5.346;2023-11-18T09:16:50;8.50;99.90
33903;DHT22;20194;50.950;5.346;2023-11-18T09:19:16;8.40;99.90
33903;DHT22;20194;50.950;5.346;2023-11-18T09:21:43;8.40;99.90
33903;DHT22;20194;50.950;5.346;2023-11-18T09:24:10;8.40;99.90
33903;DHT22;20194;50.950;5.346;2023-11-18T09:26:38;8.50;99.90
33903;DHT22;20194;50.950;5.346;2023-11-18T09:29:05;8.50;99.90
33903;DHT22;20194;50.950;5.346;2023-11-18T09:31:35;8.50;99.90
33903;DHT22;20194;50.950;5.346;2023-11-18T09:34:03;8.60;99.90
33903;DHT22;20194;50.950;5.346;2023-11-18T09:36:32;8.50;99.90
33903;DHT22;20194;50.950;5.346;2023-11-18T09:38:59;8.50;99.90
33903;DHT22;20194;50.950;5.346;2023-11-18T09:41:25;8.50;99.90
33903;DHT22;20194;50.950;5.346;2023-11-18T09:43:52;8.50;99.90
33903;DHT22;20194;50.950;5.346;2023-11-18T09:46:23;8.50;99.90
33903;DHT22;20194;50.950;5.346;2023-11-18T09:51:59;8.50;99.90
33903;DHT22;20194;50.950;5.346;2023-11-18T09:54:31;8.40;99.90
33903;DHT22;20194;50.950;5.346;2023-11-18T09:57:23;8.50;99.90
33903;DHT22;20194;50.950;5.346;2023-11-18T10:00:02;8.50;99.90
33903;DHT22;20194;50.950;5.346;2023-11-18T10:02:53;8.50;99.90
33903;DHT22;20194;50.950;5.346;2023-11-18T10:05:21;8.60;99.90
33903;DHT22;20194;50.950;5.346;2023-11-18T10:07:48;8.60;99.90
33903;DHT22;20194;50.950;5.346;2023-11-18T10:10:17;8.60;99.90
33903;DHT22;20194;50.950;5.346;2023-11-18T10:12:47;8.60;99.90
33903;DHT22;20194;50.950;5.346;2023-11-18T10:15:19;8.60;99.90
33903;DHT22;20194;50.950;5.346;2023-11-18T10:17:49;8.60;99.90
33903;DHT22;20194;50.950;5.346;2023-11-18T10:20:43;8.70;99.90
33903;DHT22;20194;50.950;5.346;2023-11-18T10:23:16;8.70;99.90
33903;DHT22;20194;50.950;5.346;2023-11-18T10:25:46;8.70;99.90
33903;DHT22;20194;50.950;5.346;2023-11-18T10:28:33;8.70;99.90
33903;DHT22;20194;50.950;5.346;2023-11-18T10:31:00;8.60;99.90
33903;DHT22;20194;50.950;5.346;2023-11-18T10:33:36;8.70;99.90
33903;DHT22;20194;50.950;5.346;2023-11-18T10:36:04;8.70;99.90
33903;DHT22;20194;50.950;5.346;2023-11-18T10:38:38;8.70;99.90
33903;DHT22;20194;50.950;5.346;2023-11-18T10:41:09;8.80;99.90
33903;DHT22;20194;50.950;5.346;2023-11-18T10:43:35;8.80;99.90
33903;DHT22;20194;50.950;5.346;2023-11-18T10:46:06;8.80;99.90
33903;DHT22;20194;50.950;5.346;2023-11-18T10:48:44;8.90;99.90
33903;DHT22;20194;50.950;5.346;2023-11-18T10:51:11;8.90;99.90
33903;DHT22;20194;50.950;5.346;2023-11-18T10:53:43;8.90;99.90
33903;DHT22;20194;50.950;5.346;2023-11-18T10:56:22;8.90;99.90
33903;DHT22;20194;50.950;5.346;2023-11-18T10:59:00;8.90;99.90
33903;DHT22;20194;50.950;5.346;2023-11-18T11:01:38;8.90;99.90
33903;DHT22;20194;50.950;5.346;2023-11-18T11:04:10;8.90;99.90
33903;DHT22;20194;50.950;5.346;2023-11-18T11:06:44;8.90;99.90
33903;DHT22;20194;50.950;5.346;2023-11-18T11:09:18;8.90;99.90
33903;DHT22;20194;50.950;5.346;2023-11-18T11:11:57;8.90;99.90
33903;DHT22;20194;50.950;5.346;2023-11-18T11:14:46;8.90;99.90
33903;DHT22;20194;50.950;5.346;2023-11-18T11:17:19;8.90;99.90
33903;DHT22;20194;50.950;5.346;2023-11-18T11:20:08;8.90;99.90
33903;DHT22;20194;50.950;5.346;2023-11-18T11:28:31;8.90;99.90
33903;DHT22;20194;50.950;5.346;2023-11-18T11:31:09;8.80;99.90
33903;DHT22;20194;50.950;5.346;2023-11-18T11:33:46;8.80;99.90
33903;DHT22;20194;50.950;5.346;2023-11-18T11:36:21;8.90;99.90
33903;DHT22;20194;50.950;5.346;2023-11-18T11:38:52;8.90;99.90
33903;DHT22;20194;50.950;5.346;2023-11-18T11:41:21;9.00;99.90
33903;DHT22;20194;50.950;5.346;2023-11-18T11:43:52;9.00;99.90
33903;DHT22;20194;50.950;5.346;2023-11-18T11:46:25;9.00;99.90
33903;DHT22;20194;50.950;5.346;2023-11-18T11:48:52;9.00;99.90
33903;DHT22;20194;50.950;5.346;2023-11-18T11:56:47;8.90;99.90
33903;DHT22;20194;50.950;5.346;2023-11-18T11:59:34;8.90;99.90
33903;DHT22;20194;50.950;5.346;2023-11-18T12:02:02;8.90;99.90
33903;DHT22;20194;50.950;5.346;2023-11-18T12:04:33;8.80;99.90
33903;DHT22;20194;50.950;5.346;2023-11-18T12:07:08;8.80;99.90
33903;DHT22;20194;50.950;5.346;2023-11-18T12:09:36;8.80;99.90
33903;DHT22;20194;50.950;5.346;2023-11-18T12:12:05;8.90;99.90
33903;DHT22;20194;50.950;5.346;2023-11-18T12:14:57;8.90;99.90
33903;DHT22;20194;50.950;5.346;2023-11-18T12:17:24;8.90;99.90
33903;DHT22;20194;50.950;5.346;2023-11-18T12:19:54;8.90;99.90
33903;DHT22;20194;50.950;5.346;2023-11-18T12:23:03;8.90;99.90
33903;DHT22;20194;50.950;5.346;2023-11-18T12:25:42;8.80;99.90
33903;DHT22;20194;50.950;5.346;2023-11-18T12:28:14;8.80;99.90
33903;DHT22;20194;50.950;5.346;2023-11-18T12:30:42;8.90;99.90
33903;DHT22;20194;50.950;5.346;2023-11-18T12:33:51;8.90;99.90
33903;DHT22;20194;50.950;5.346;2023-11-18T12:42:09;9.00;99.90
33903;DHT22;20194;50.950;5.346;2023-11-18T12:47:24;9.00;99.90
33903;DHT22;20194;50.950;5.346;2023-11-18T12:49:54;9.00;99.90
33903;DHT22;20194;50.950;5.346;2023-11-18T12:52:22;9.10;99.90
33903;DHT22;20194;50.950;5.346;2023-11-18T12:54:49;9.20;99.90
33903;DHT22;20194;50.950;5.346;2023-11-18T12:57:21;9.10;99.90
33903;DHT22;20194;50.950;5.346;2023-11-18T12:59:49;9.20;99.90
33903;DHT22;20194;50.950;5.346;2023-11-18T13:02:15;9.20;99.90
33903;DHT22;20194;50.950;5.346;2023-11-18T13:04:49;9.20;99.90
33903;DHT22;20194;50.950;5.346;2023-11-18T13:07:19;9.20;99.90
33903;DHT22;20194;50.950;5.346;2023-11-18T13:09:50;9.20;99.90
33903;DHT22;20194;50.950;5.346;2023-11-18T13:12:16;9.20;99.90
33903;DHT22;20194;50.950;5.346;2023-11-18T13:14:44;9.20;99.90
33903;DHT22;20194;50.950;5.346;2023-11-18T13:17:16;9.20;99.90
33903;DHT22;20194;50.950;5.346;2023-11-18T13:19:43;9.20;99.90
33903;DHT22;20194;50.950;5.346;2023-11-18T13:22:11;9.10;99.90
33903;DHT22;20194;50.950;5.346;2023-11-18T13:24:46;9.20;99.90
33903;DHT22;20194;50.950;5.346;2023-11-18T13:27:16;9.10;99.90
33903;DHT22;20194;50.950;5.346;2023-11-18T13:29:50;9.20;99.90
33903;DHT22;20194;50.950;5.346;2023-11-18T13:32:18;9.20;99.90
33903;DHT22;20194;50.950;5.346;2023-11-18T13:34:48;9.20;99.90
33903;DHT22;20194;50.950;5.346;2023-11-18T13:37:14;9.20;99.90
33903;DHT22;20194;50.950;5.346;2023-11-18T13:39:43;9.10;99.90
33903;DHT22;20194;50.950;5.346;2023-11-18T13:42:23;9.20;99.90
33903;DHT22;20194;50.950;5.346;2023-11-18T13:44:49;9.10;99.90
33903;DHT22;20194;50.950;5.346;2023-11-18T13:47:22;9.10;99.90
33903;DHT22;20194;50.950;5.346;2023-11-18T13:49:54;9.10;99.90
33903;DHT22;20194;50.950;5.346;2023-11-18T13:52:20;9.10;99.90
33903;DHT22;20194;50.950;5.346;2023-11-18T13:54:47;9.10;99.90
33903;DHT22;20194;50.950;5.346;2023-11-18T13:57:13;9.00;99.90
33903;DHT22;20194;50.950;5.346;2023-11-18T13:59:39;9.10;99.90
33903;DHT22;20194;50.950;5.346;2023-11-18T14:02:05;9.10;99.90
33903;DHT22;20194;50.950;5.346;2023-11-18T14:04:33;9.10;99.90
33903;DHT22;20194;50.950;5.346;2023-11-18T14:07:03;9.10;99.90
33903;DHT22;20194;50.950;5.346;2023-11-18T14:09:35;9.10;99.90
33903;DHT22;20194;50.950;5.346;2023-11-18T14:12:10;9.10;99.90
33903;DHT22;20194;50.950;5.346;2023-11-18T14:14:37;9.10;99.90
33903;DHT22;20194;50.950;5.346;2023-11-18T14:17:06;9.10;99.90
33903;DHT22;20194;50.950;5.346;2023-11-18T14:19:35;9.20;99.90
33903;DHT22;20194;50.950;5.346;2023-11-18T14:22:01;9.10;99.90
33903;DHT22;20194;50.950;5.346;2023-11-18T14:24:33;9.10;99.90
33903;DHT22;20194;50.950;5.346;2023-11-18T14:26:58;9.20;99.90
33903;DHT22;20194;50.950;5.346;2023-11-18T14:29:24;9.20;99.90
33903;DHT22;20194;50.950;5.346;2023-11-18T14:31:50;9.20;99.90
33903;DHT22;20194;50.950;5.346;2023-11-18T14:34:15;9.20;99.90
33903;DHT22;20194;50.950;5.346;2023-11-18T14:36:41;9.20;99.90
33903;DHT22;20194;50.950;5.346;2023-11-18T14:39:09;9.20;99.90
33903;DHT22;20194;50.950;5.346;2023-11-18T14:41:40;9.20;99.90
33903;DHT22;20194;50.950;5.346;2023-11-18T14:44:06;9.20;99.90
33903;DHT22;20194;50.950;5.346;2023-11-18T14:46:35;9.20;99.90
33903;DHT22;20194;50.950;5.346;2023-11-18T14:49:06;9.20;99.90
33903;DHT22;20194;50.950;5.346;2023-11-18T14:51:33;9.20;99.90
33903;DHT22;20194;50.950;5.346;2023-11-18T14:53:58;9.20;99.90
33903;DHT22;20194;50.950;5.346;2023-11-18T14:56:25;9.20;99.90
33903;DHT22;20194;50.950;5.346;2023-11-18T14:58:50;9.20;99.90
33903;DHT22;20194;50.950;5.346;2023-11-18T15:01:17;9.30;99.90
33903;DHT22;20194;50.950;5.346;2023-11-18T15:03:44;9.20;99.90
33903;DHT22;20194;50.950;5.346;2023-11-18T15:06:11;9.20;99.90
33903;DHT22;20194;50.950;5.346;2023-11-18T15:08:38;9.30;99.90
33903;DHT22;20194;50.950;5.346;2023-11-18T15:11:05;9.30;99.90
33903;DHT22;20194;50.950;5.346;2023-11-18T15:13:32;9.30;99.90
33903;DHT22;20194;50.950;5.346;2023-11-18T15:15:58;9.20;99.90
33903;DHT22;20194;50.950;5.346;2023-11-18T15:18:24;9.30;99.90
33903;DHT22;20194;50.950;5.346;2023-11-18T15:20:49;9.30;99.90
33903;DHT22;20194;50.950;5.346;2023-11-18T15:23:18;9.40;99.90
33903;DHT22;20194;50.950;5.346;2023-11-18T15:25:49;9.40;99.90
33903;DHT22;20194;50.950;5.346;2023-11-18T15:28:18;9.40;99.90
33903;DHT22;20194;50.950;5.346;2023-11-18T15:30:44;9.40;99.90
33903;DHT22;20194;50.950;5.346;2023-11-18T15:33:10;9.40;99.90
33903;DHT22;20194;50.950;5.346;2023-11-18T15:35:39;9.40;99.90
33903;DHT22;20194;50.950;5.346;2023-11-18T15:38:07;9.40;99.90
33903;DHT22;20194;50.950;5.346;2023-11-18T15:40:36;9.40;99.90
33903;DHT22;20194;50.950;5.346;2023-11-18T15:43:03;9.40;99.90
33903;DHT22;20194;50.950;5.346;2023-11-18T15:45:33;9.40;99.90
33903;DHT22;20194;50.950;5.346;2023-11-18T15:48:00;9.40;99.90
33903;DHT22;20194;50.950;5.346;2023-11-18T15:50:26;9.40;99.90
33903;DHT22;20194;50.950;5.346;2023-11-18T15:52:54;9.50;99.90
33903;DHT22;20194;50.950;5.346;2023-11-18T15:55:21;9.50;99.90
33903;DHT22;20194;50.950;5.346;2023-11-18T15:57:50;9.50;99.90
33903;DHT22;20194;50.950;5.346;2023-11-18T16:00:26;9.40;99.90
33903;DHT22;20194;50.950;5.346;2023-11-18T16:02:53;9.50;99.90
33903;DHT22;20194;50.950;5.346;2023-11-18T16:05:21;9.50;99.90
33903;DHT22;20194;50.950;5.346;2023-11-18T16:07:51;9.50;99.90
33903;DHT22;20194;50.950;5.346;2023-11-18T16:10:19;9.50;99.90
33903;DHT22;20194;50.950;5.346;2023-11-18T16:12:59;9.50;99.90
33903;DHT22;20194;50.950;5.346;2023-11-18T16:15:30;9.50;99.90
33903;DHT22;20194;50.950;5.346;2023-11-18T16:17:57;9.50;99.90